sensor_id;sensor_type;location;lat;lon;timestamp;P1;durP1;ratioP1;P2;durP2;ratioP2
46110;SDS011;31849;55.992;37.252;2023-05-21T00:01:55;7.38;;;4.85;;
46110;SDS011;31849;55.992;37.252;2023-05-21T00:07:00;8.55;;;4.80;;
46110;SDS011;31849;55.992;37.252;2023-05-21T00:12:04;7.57;;;5.05;;
46110;SDS011;31849;55.992;37.252;2023-05-21T00:17:10;8.80;;;4.93;;
46110;SDS011;31849;55.992;37.252;2023-05-21T00:22:14;7.78;;;5.30;;
46110;SDS011;31849;55.992;37.252;2023-05-21T00:27:18;8.03;;;5.33;;
46110;SDS011;31849;55.992;37.252;2023-05-21T00:32:23;7.72;;;5.35;;
46110;SDS011;31849;55.992;37.252;2023-05-21T00:37:26;7.07;;;5.85;;
46110;SDS011;31849;55.992;37.252;2023-05-21T00:42:35;7.85;;;5.72;;
46110;SDS011;31849;55.992;37.252;2023-05-21T00:47:41;8.52;;;5.10;;
46110;SDS011;31849;55.992;37.252;2023-05-21T00:52:46;7.82;;;5.40;;
46110;SDS011;31849;55.992;37.252;2023-05-21T00:57:49;6.73;;;5.10;;
46110;SDS011;31849;55.992;37.252;2023-05-21T01:02:55;6.55;;;5.35;;
46110;SDS011;31849;55.992;37.252;2023-05-21T01:07:58;8.45;;;5.60;;
46110;SDS011;31849;55.992;37.252;2023-05-21T01:13:02;6.90;;;5.67;;
46110;SDS011;31849;55.992;37.252;2023-05-21T01:18:07;8.20;;;5.30;;
46110;SDS011;31849;55.992;37.252;2023-05-21T01:23:13;7.40;;;5.45;;
46110;SDS011;31849;55.992;37.252;2023-05-21T01:28:17;9.57;;;5.78;;
46110;SDS011;31849;55.992;37.252;2023-05-21T01:33:22;8.05;;;5.70;;
46110;SDS011;31849;55.992;37.252;2023-05-21T01:38:35;7.70;;;5.25;;
46110;SDS011;31849;55.992;37.252;2023-05-21T01:43:44;9.30;;;5.80;;
46110;SDS011;31849;55.992;37.252;2023-05-21T01:48:48;8.73;;;5.68;;
46110;SDS011;31849;55.992;37.252;2023-05-21T01:53:56;7.60;;;5.60;;
46110;SDS011;31849;55.992;37.252;2023-05-21T01:58:59;9.35;;;6.30;;
46110;SDS011;31849;55.992;37.252;2023-05-21T02:04:03;10.98;;;6.15;;
46110;SDS011;31849;55.992;37.252;2023-05-21T02:09:09;9.65;;;6.30;;
46110;SDS011;31849;55.992;37.252;2023-05-21T02:14:12;9.35;;;6.38;;
46110;SDS011;31849;55.992;37.252;2023-05-21T02:19:16;7.32;;;6.07;;
46110;SDS011;31849;55.992;37.252;2023-05-21T02:24:21;8.65;;;6.28;;
46110;SDS011;31849;55.992;37.252;2023-05-21T02:29:25;7.28;;;6.07;;
46110;SDS011;31849;55.992;37.252;2023-05-21T02:34:29;8.80;;;6.57;;
46110;SDS011;31849;55.992;37.252;2023-05-21T02:44:38;8.60;;;5.93;;
46110;SDS011;31849;55.992;37.252;2023-05-21T02:49:41;10.52;;;7.05;;
46110;SDS011;31849;55.992;37.252;2023-05-21T02:54:46;8.20;;;6.93;;
46110;SDS011;31849;55.992;37.252;2023-05-21T02:59:50;9.18;;;7.72;;
46110;SDS011;31849;55.992;37.252;2023-05-21T03:04:54;8.25;;;7.43;;
46110;SDS011;31849;55.992;37.252;2023-05-21T03:09:59;9.05;;;7.57;;
46110;SDS011;31849;55.992;37.252;2023-05-21T03:15:05;8.95;;;7.47;;
46110;SDS011;31849;55.992;37.252;2023-05-21T03:20:09;9.35;;;7.68;;
46110;SDS011;31849;55.992;37.252;2023-05-21T03:25:19;11.48;;;8.15;;
46110;SDS011;31849;55.992;37.252;2023-05-21T03:30:25;8.80;;;7.75;;
46110;SDS011;31849;55.992;37.252;2023-05-21T03:35:29;7.70;;;6.82;;
46110;SDS011;31849;55.992;37.252;2023-05-21T03:40:34;10.85;;;7.95;;
46110;SDS011;31849;55.992;37.252;2023-05-21T03:45:37;10.23;;;7.43;;
46110;SDS011;31849;55.992;37.252;2023-05-21T03:50:44;8.60;;;7.45;;
46110;SDS011;31849;55.992;37.252;2023-05-21T03:55:50;8.43;;;7.50;;
46110;SDS011;31849;55.992;37.252;2023-05-21T04:00:56;9.30;;;8.30;;
46110;SDS011;31849;55.992;37.252;2023-05-21T04:05:59;9.32;;;7.07;;
46110;SDS011;31849;55.992;37.252;2023-05-21T04:11:04;9.93;;;7.82;;
46110;SDS011;31849;55.992;37.252;2023-05-21T04:16:08;8.68;;;7.78;;
46110;SDS011;31849;55.992;37.252;2023-05-21T04:21:15;8.80;;;7.70;;
46110;SDS011;31849;55.992;37.252;2023-05-21T04:26:20;8.65;;;6.03;;
46110;SDS011;31849;55.992;37.252;2023-05-21T04:31:24;8.75;;;6.57;;
46110;SDS011;31849;55.992;37.252;2023-05-21T04:36:27;6.93;;;6.05;;
46110;SDS011;31849;55.992;37.252;2023-05-21T04:41:32;7.22;;;5.97;;
46110;SDS011;31849;55.992;37.252;2023-05-21T04:46:37;7.10;;;6.20;;
46110;SDS011;31849;55.992;37.252;2023-05-21T04:51:42;7.97;;;6.03;;
46110;SDS011;31849;55.992;37.252;2023-05-21T04:56:47;7.20;;;5.85;;
46110;SDS011;31849;55.992;37.252;2023-05-21T05:01:51;6.15;;;5.50;;
46110;SDS011;31849;55.992;37.252;2023-05-21T05:06:54;6.53;;;5.07;;
46110;SDS011;31849;55.992;37.252;2023-05-21T05:11:59;5.17;;;4.67;;
46110;SDS011;31849;55.992;37.252;2023-05-21T05:17:03;6.60;;;5.05;;
46110;SDS011;31849;55.992;37.252;2023-05-21T05:22:09;5.32;;;4.60;;
46110;SDS011;31849;55.992;37.252;2023-05-21T05:27:15;4.90;;;4.40;;
46110;SDS011;31849;55.992;37.252;2023-05-21T05:32:19;6.80;;;4.47;;
46110;SDS011;31849;55.992;37.252;2023-05-21T05:37:23;4.80;;;4.30;;
46110;SDS011;31849;55.992;37.252;2023-05-21T05:42:28;5.00;;;4.47;;
46110;SDS011;31849;55.992;37.252;2023-05-21T05:47:31;4.30;;;3.90;;
46110;SDS011;31849;55.992;37.252;2023-05-21T05:52:35;4.78;;;3.95;;
46110;SDS011;31849;55.992;37.252;2023-05-21T05:57:40;5.75;;;4.30;;
46110;SDS011;31849;55.992;37.252;2023-05-21T06:02:45;5.50;;;4.20;;
46110;SDS011;31849;55.992;37.252;2023-05-21T06:07:50;5.80;;;3.65;;
46110;SDS011;31849;55.992;37.252;2023-05-21T06:12:55;4.00;;;3.55;;
46110;SDS011;31849;55.992;37.252;2023-05-21T06:17:58;4.00;;;3.05;;
46110;SDS011;31849;55.992;37.252;2023-05-21T06:23:02;5.10;;;3.60;;
46110;SDS011;31849;55.992;37.252;2023-05-21T06:28:08;6.60;;;4.22;;
46110;SDS011;31849;55.992;37.252;2023-05-21T06:33:12;6.53;;;4.40;;
46110;SDS011;31849;55.992;37.252;2023-05-21T06:38:16;6.72;;;4.10;;
46110;SDS011;31849;55.992;37.252;2023-05-21T06:43:21;6.50;;;4.30;;
46110;SDS011;31849;55.992;37.252;2023-05-21T06:48:24;5.85;;;4.40;;
46110;SDS011;31849;55.992;37.252;2023-05-21T06:53:28;4.90;;;4.20;;
46110;SDS011;31849;55.992;37.252;2023-05-21T06:58:33;4.17;;;3.77;;
46110;SDS011;31849;55.992;37.252;2023-05-21T07:03:37;4.88;;;3.90;;
46110;SDS011;31849;55.992;37.252;2023-05-21T07:08:40;6.68;;;4.20;;
46110;SDS011;31849;55.992;37.252;2023-05-21T07:13:45;6.13;;;3.80;;
46110;SDS011;31849;55.992;37.252;2023-05-21T07:18:49;4.63;;;3.78;;
46110;SDS011;31849;55.992;37.252;2023-05-21T07:23:53;5.38;;;4.00;;
46110;SDS011;31849;55.992;37.252;2023-05-21T07:34:01;4.50;;;3.88;;
46110;SDS011;31849;55.992;37.252;2023-05-21T07:39:05;4.20;;;3.65;;
46110;SDS011;31849;55.992;37.252;2023-05-21T07:44:10;4.67;;;3.07;;
46110;SDS011;31849;55.992;37.252;2023-05-21T07:49:14;4.05;;;3.20;;
46110;SDS011;31849;55.992;37.252;2023-05-21T07:54:18;7.13;;;3.33;;
46110;SDS011;31849;55.992;37.252;2023-05-21T07:59:23;5.72;;;2.88;;
46110;SDS011;31849;55.992;37.252;2023-05-21T08:04:27;5.13;;;3.20;;
46110;SDS011;31849;55.992;37.252;2023-05-21T08:09:30;3.30;;;2.70;;
46110;SDS011;31849;55.992;37.252;2023-05-21T08:14:35;3.72;;;2.80;;
46110;SDS011;31849;55.992;37.252;2023-05-21T08:19:39;4.93;;;2.95;;
46110;SDS011;31849;55.992;37.252;2023-05-21T08:24:42;5.43;;;3.20;;
46110;SDS011;31849;55.992;37.252;2023-05-21T08:29:47;5.35;;;3.40;;
46110;SDS011;31849;55.992;37.252;2023-05-21T08:34:51;4.97;;;3.20;;
46110;SDS011;31849;55.992;37.252;2023-05-21T08:39:55;3.83;;;3.40;;
46110;SDS011;31849;55.992;37.252;2023-05-21T08:45:00;5.18;;;3.50;;
46110;SDS011;31849;55.992;37.252;2023-05-21T08:50:07;7.45;;;3.60;;
46110;SDS011;31849;55.992;37.252;2023-05-21T08:55:12;5.30;;;3.63;;
46110;SDS011;31849;55.992;37.252;2023-05-21T09:00:18;4.55;;;3.55;;
46110;SDS011;31849;55.992;37.252;2023-05-21T09:05:21;7.35;;;3.50;;
46110;SDS011;31849;55.992;37.252;2023-05-21T09:10:28;5.10;;;3.40;;
46110;SDS011;31849;55.992;37.252;2023-05-21T09:15:39;6.78;;;3.22;;
46110;SDS011;31849;55.992;37.252;2023-05-21T09:20:42;4.82;;;3.80;;
46110;SDS011;31849;55.992;37.252;2023-05-21T09:25:46;4.63;;;3.40;;
46110;SDS011;31849;55.992;37.252;2023-05-21T09:30:54;4.03;;;3.50;;
46110;SDS011;31849;55.992;37.252;2023-05-21T09:35:57;5.60;;;3.22;;
46110;SDS011;31849;55.992;37.252;2023-05-21T09:41:03;6.65;;;3.08;;
46110;SDS011;31849;55.992;37.252;2023-05-21T09:46:08;5.07;;;3.22;;
46110;SDS011;31849;55.992;37.252;2023-05-21T09:51:13;4.15;;;3.20;;
46110;SDS011;31849;55.992;37.252;2023-05-21T09:56:20;5.38;;;3.80;;
46110;SDS011;31849;55.992;37.252;2023-05-21T10:01:27;6.68;;;3.65;;
46110;SDS011;31849;55.992;37.252;2023-05-21T10:06:35;8.00;;;3.85;;
46110;SDS011;31849;55.992;37.252;2023-05-21T10:11:43;4.05;;;3.40;;
46110;SDS011;31849;55.992;37.252;2023-05-21T10:16:48;5.43;;;3.40;;
46110;SDS011;31849;55.992;37.252;2023-05-21T10:21:54;7.00;;;3.88;;
46110;SDS011;31849;55.992;37.252;2023-05-21T10:32:04;5.43;;;3.75;;
46110;SDS011;31849;55.992;37.252;2023-05-21T10:37:08;6.07;;;3.70;;
46110;SDS011;31849;55.992;37.252;2023-05-21T10:42:17;7.13;;;3.80;;
46110;SDS011;31849;55.992;37.252;2023-05-21T10:47:35;4.65;;;3.85;;
46110;SDS011;31849;55.992;37.252;2023-05-21T10:52:53;4.97;;;3.50;;
46110;SDS011;31849;55.992;37.252;2023-05-21T10:58:09;7.53;;;3.78;;
46110;SDS011;31849;55.992;37.252;2023-05-21T11:03:41;6.07;;;3.70;;
46110;SDS011;31849;55.992;37.252;2023-05-21T11:08:46;4.75;;;3.55;;
46110;SDS011;31849;55.992;37.252;2023-05-21T11:13:50;8.55;;;4.00;;
46110;SDS011;31849;55.992;37.252;2023-05-21T11:18:58;5.07;;;3.63;;
46110;SDS011;31849;55.992;37.252;2023-05-21T11:24:04;6.07;;;3.90;;
46110;SDS011;31849;55.992;37.252;2023-05-21T11:29:09;8.38;;;3.97;;
46110;SDS011;31849;55.992;37.252;2023-05-21T11:34:17;5.32;;;3.65;;
46110;SDS011;31849;55.992;37.252;2023-05-21T11:39:23;6.45;;;3.95;;
46110;SDS011;31849;55.992;37.252;2023-05-21T11:44:36;4.97;;;3.47;;
46110;SDS011;31849;55.992;37.252;2023-05-21T11:49:42;5.78;;;3.22;;
46110;SDS011;31849;55.992;37.252;2023-05-21T11:54:47;6.07;;;3.55;;
46110;SDS011;31849;55.992;37.252;2023-05-21T11:59:56;4.97;;;3.45;;
46110;SDS011;31849;55.992;37.252;2023-05-21T12:05:02;7.25;;;3.63;;
46110;SDS011;31849;55.992;37.252;2023-05-21T12:10:07;8.00;;;3.90;;
46110;SDS011;31849;55.992;37.252;2023-05-21T12:20:16;5.27;;;3.60;;
46110;SDS011;31849;55.992;37.252;2023-05-21T12:25:20;6.85;;;3.55;;
46110;SDS011;31849;55.992;37.252;2023-05-21T12:30:24;6.70;;;5.47;;
46110;SDS011;31849;55.992;37.252;2023-05-21T12:35:29;7.35;;;3.90;;
46110;SDS011;31849;55.992;37.252;2023-05-21T12:40:34;5.97;;;3.88;;
46110;SDS011;31849;55.992;37.252;2023-05-21T12:45:41;5.88;;;3.85;;
46110;SDS011;31849;55.992;37.252;2023-05-21T12:50:46;7.43;;;4.43;;
46110;SDS011;31849;55.992;37.252;2023-05-21T12:55:50;5.65;;;4.10;;
46110;SDS011;31849;55.992;37.252;2023-05-21T13:00:57;7.85;;;4.30;;
46110;SDS011;31849;55.992;37.252;2023-05-21T13:06:03;7.18;;;3.75;;
46110;SDS011;31849;55.992;37.252;2023-05-21T13:11:09;7.75;;;3.10;;
46110;SDS011;31849;55.992;37.252;2023-05-21T13:16:12;7.50;;;3.60;;
46110;SDS011;31849;55.992;37.252;2023-05-21T13:26:21;5.50;;;3.80;;
46110;SDS011;31849;55.992;37.252;2023-05-21T13:31:25;6.77;;;3.80;;
46110;SDS011;31849;55.992;37.252;2023-05-21T13:36:30;5.53;;;3.97;;
46110;SDS011;31849;55.992;37.252;2023-05-21T13:41:34;7.28;;;4.03;;
46110;SDS011;31849;55.992;37.252;2023-05-21T13:46:37;8.53;;;4.23;;
46110;SDS011;31849;55.992;37.252;2023-05-21T13:51:43;4.53;;;3.57;;
46110;SDS011;31849;55.992;37.252;2023-05-21T13:56:46;5.82;;;3.70;;
46110;SDS011;31849;55.992;37.252;2023-05-21T14:01:50;5.30;;;3.30;;
46110;SDS011;31849;55.992;37.252;2023-05-21T14:06:55;5.20;;;2.97;;
46110;SDS011;31849;55.992;37.252;2023-05-21T14:11:58;4.55;;;2.70;;
46110;SDS011;31849;55.992;37.252;2023-05-21T14:17:02;6.53;;;2.67;;
46110;SDS011;31849;55.992;37.252;2023-05-21T14:22:07;3.83;;;2.63;;
46110;SDS011;31849;55.992;37.252;2023-05-21T14:27:11;6.40;;;2.50;;
46110;SDS011;31849;55.992;37.252;2023-05-21T14:32:16;5.00;;;2.20;;
46110;SDS011;31849;55.992;37.252;2023-05-21T14:37:21;4.35;;;2.25;;
46110;SDS011;31849;55.992;37.252;2023-05-21T14:42:25;5.63;;;2.03;;
46110;SDS011;31849;55.992;37.252;2023-05-21T14:47:28;4.43;;;2.13;;
46110;SDS011;31849;55.992;37.252;2023-05-21T14:52:33;6.55;;;2.13;;
46110;SDS011;31849;55.992;37.252;2023-05-21T14:57:37;3.47;;;2.20;;
46110;SDS011;31849;55.992;37.252;2023-05-21T15:02:41;3.03;;;2.20;;
46110;SDS011;31849;55.992;37.252;2023-05-21T15:07:46;5.72;;;2.63;;
46110;SDS011;31849;55.992;37.252;2023-05-21T15:12:49;9.70;;;2.92;;
46110;SDS011;31849;55.992;37.252;2023-05-21T15:17:53;4.15;;;2.30;;
46110;SDS011;31849;55.992;37.252;2023-05-21T15:22:59;5.03;;;2.58;;
46110;SDS011;31849;55.992;37.252;2023-05-21T15:28:06;4.88;;;2.78;;
46110;SDS011;31849;55.992;37.252;2023-05-21T15:33:10;4.60;;;2.80;;
46110;SDS011;31849;55.992;37.252;2023-05-21T15:38:15;4.43;;;2.97;;
46110;SDS011;31849;55.992;37.252;2023-05-21T15:43:18;4.05;;;2.70;;
46110;SDS011;31849;55.992;37.252;2023-05-21T15:48:22;6.70;;;2.93;;
46110;SDS011;31849;55.992;37.252;2023-05-21T15:53:27;7.10;;;3.50;;
46110;SDS011;31849;55.992;37.252;2023-05-21T15:58:31;5.78;;;2.88;;
46110;SDS011;31849;55.992;37.252;2023-05-21T16:03:34;4.73;;;2.63;;
46110;SDS011;31849;55.992;37.252;2023-05-21T16:08:39;4.53;;;2.65;;
46110;SDS011;31849;55.992;37.252;2023-05-21T16:13:43;5.72;;;2.67;;
46110;SDS011;31849;55.992;37.252;2023-05-21T16:18:47;3.47;;;2.67;;
46110;SDS011;31849;55.992;37.252;2023-05-21T16:23:52;3.67;;;2.28;;
46110;SDS011;31849;55.992;37.252;2023-05-21T16:28:55;4.35;;;2.42;;
46110;SDS011;31849;55.992;37.252;2023-05-21T16:33:59;5.83;;;2.80;;
46110;SDS011;31849;55.992;37.252;2023-05-21T16:39:04;4.47;;;2.57;;
46110;SDS011;31849;55.992;37.252;2023-05-21T16:44:08;5.32;;;2.85;;
46110;SDS011;31849;55.992;37.252;2023-05-21T16:49:11;4.57;;;2.73;;
46110;SDS011;31849;55.992;37.252;2023-05-21T16:54:16;4.67;;;2.70;;
46110;SDS011;31849;55.992;37.252;2023-05-21T16:59:20;4.20;;;2.42;;
46110;SDS011;31849;55.992;37.252;2023-05-21T17:04:23;6.27;;;2.90;;
46110;SDS011;31849;55.992;37.252;2023-05-21T17:09:28;11.23;;;3.13;;
46110;SDS011;31849;55.992;37.252;2023-05-21T17:14:33;6.05;;;3.15;;
46110;SDS011;31849;55.992;37.252;2023-05-21T17:19:40;7.15;;;3.42;;
46110;SDS011;31849;55.992;37.252;2023-05-21T17:24:46;6.68;;;3.58;;
46110;SDS011;31849;55.992;37.252;2023-05-21T17:29:50;5.95;;;3.72;;
46110;SDS011;31849;55.992;37.252;2023-05-21T17:34:53;5.73;;;3.97;;
46110;SDS011;31849;55.992;37.252;2023-05-21T17:39:58;7.80;;;3.70;;
46110;SDS011;31849;55.992;37.252;2023-05-21T17:45:04;6.13;;;4.10;;
46110;SDS011;31849;55.992;37.252;2023-05-21T17:50:08;6.80;;;3.80;;
46110;SDS011;31849;55.992;37.252;2023-05-21T17:55:13;6.03;;;4.25;;
46110;SDS011;31849;55.992;37.252;2023-05-21T18:00:18;6.90;;;3.92;;
46110;SDS011;31849;55.992;37.252;2023-05-21T18:05:22;6.15;;;3.75;;
46110;SDS011;31849;55.992;37.252;2023-05-21T18:10:27;8.70;;;4.07;;
46110;SDS011;31849;55.992;37.252;2023-05-21T18:15:30;7.75;;;4.13;;
46110;SDS011;31849;55.992;37.252;2023-05-21T18:20:35;5.53;;;3.90;;
46110;SDS011;31849;55.992;37.252;2023-05-21T18:25:40;6.63;;;4.07;;
46110;SDS011;31849;55.992;37.252;2023-05-21T18:30:44;6.88;;;4.28;;
46110;SDS011;31849;55.992;37.252;2023-05-21T18:35:47;6.70;;;3.97;;
46110;SDS011;31849;55.992;37.252;2023-05-21T18:40:52;10.38;;;4.75;;
46110;SDS011;31849;55.992;37.252;2023-05-21T18:45:57;10.68;;;7.05;;
46110;SDS011;31849;55.992;37.252;2023-05-21T18:51:01;15.23;;;9.30;;
46110;SDS011;31849;55.992;37.252;2023-05-21T18:56:06;18.10;;;8.60;;
46110;SDS011;31849;55.992;37.252;2023-05-21T19:01:10;12.93;;;7.30;;
46110;SDS011;31849;55.992;37.252;2023-05-21T19:06:14;9.07;;;5.67;;
46110;SDS011;31849;55.992;37.252;2023-05-21T19:11:19;15.32;;;6.97;;
46110;SDS011;31849;55.992;37.252;2023-05-21T19:16:24;11.73;;;6.22;;
46110;SDS011;31849;55.992;37.252;2023-05-21T19:21:28;8.50;;;5.40;;
46110;SDS011;31849;55.992;37.252;2023-05-21T19:26:33;9.65;;;5.13;;
46110;SDS011;31849;55.992;37.252;2023-05-21T19:31:37;12.75;;;5.80;;
46110;SDS011;31849;55.992;37.252;2023-05-21T19:36:41;9.60;;;5.40;;
46110;SDS011;31849;55.992;37.252;2023-05-21T19:41:55;10.63;;;5.35;;
46110;SDS011;31849;55.992;37.252;2023-05-21T19:46:59;12.10;;;5.55;;
46110;SDS011;31849;55.992;37.252;2023-05-21T19:52:03;10.38;;;5.43;;
46110;SDS011;31849;55.992;37.252;2023-05-21T19:57:09;13.27;;;5.57;;
46110;SDS011;31849;55.992;37.252;2023-05-21T20:02:13;13.95;;;5.75;;
46110;SDS011;31849;55.992;37.252;2023-05-21T20:07:19;12.07;;;5.50;;
46110;SDS011;31849;55.992;37.252;2023-05-21T20:12:24;9.88;;;5.97;;
46110;SDS011;31849;55.992;37.252;2023-05-21T20:17:28;9.40;;;5.80;;
46110;SDS011;31849;55.992;37.252;2023-05-21T20:22:35;11.20;;;5.72;;
46110;SDS011;31849;55.992;37.252;2023-05-21T20:27:40;9.57;;;5.70;;
46110;SDS011;31849;55.992;37.252;2023-05-21T20:32:43;8.30;;;5.10;;
46110;SDS011;31849;55.992;37.252;2023-05-21T20:37:47;8.38;;;4.95;;
46110;SDS011;31849;55.992;37.252;2023-05-21T20:42:52;13.45;;;5.55;;
46110;SDS011;31849;55.992;37.252;2023-05-21T20:47:55;9.73;;;4.72;;
46110;SDS011;31849;55.992;37.252;2023-05-21T20:53:02;8.77;;;5.65;;
46110;SDS011;31849;55.992;37.252;2023-05-21T20:58:07;7.97;;;5.10;;
46110;SDS011;31849;55.992;37.252;2023-05-21T21:03:10;11.00;;;5.40;;
46110;SDS011;31849;55.992;37.252;2023-05-21T21:08:14;9.90;;;5.55;;
46110;SDS011;31849;55.992;37.252;2023-05-21T21:13:19;10.90;;;5.50;;
46110;SDS011;31849;55.992;37.252;2023-05-21T21:18:23;10.88;;;5.63;;
46110;SDS011;31849;55.992;37.252;2023-05-21T21:23:26;8.68;;;5.95;;
46110;SDS011;31849;55.992;37.252;2023-05-21T21:28:32;14.38;;;5.85;;
46110;SDS011;31849;55.992;37.252;2023-05-21T21:33:35;10.45;;;5.90;;
46110;SDS011;31849;55.992;37.252;2023-05-21T21:38:39;8.57;;;5.57;;
46110;SDS011;31849;55.992;37.252;2023-05-21T21:43:44;12.45;;;5.35;;
46110;SDS011;31849;55.992;37.252;2023-05-21T21:48:48;12.20;;;5.53;;
46110;SDS011;31849;55.992;37.252;2023-05-21T21:53:51;9.13;;;5.68;;
46110;SDS011;31849;55.992;37.252;2023-05-21T21:58:56;8.55;;;5.45;;
46110;SDS011;31849;55.992;37.252;2023-05-21T22:04:00;12.18;;;5.88;;
46110;SDS011;31849;55.992;37.252;2023-05-21T22:09:04;11.10;;;5.63;;
46110;SDS011;31849;55.992;37.252;2023-05-21T22:14:09;11.70;;;5.45;;
46110;SDS011;31849;55.992;37.252;2023-05-21T22:19:13;17.27;;;6.18;;
46110;SDS011;31849;55.992;37.252;2023-05-21T22:24:21;10.80;;;6.22;;
46110;SDS011;31849;55.992;37.252;2023-05-21T22:29:35;9.45;;;5.97;;
46110;SDS011;31849;55.992;37.252;2023-05-21T22:34:38;7.57;;;5.32;;
46110;SDS011;31849;55.992;37.252;2023-05-21T22:39:42;9.82;;;5.18;;
46110;SDS011;31849;55.992;37.252;2023-05-21T22:44:47;11.52;;;5.35;;
46110;SDS011;31849;55.992;37.252;2023-05-21T22:49:51;8.98;;;5.68;;
46110;SDS011;31849;55.992;37.252;2023-05-21T22:54:55;9.80;;;5.78;;
46110;SDS011;31849;55.992;37.252;2023-05-21T23:00:03;10.43;;;6.60;;
46110;SDS011;31849;55.992;37.252;2023-05-21T23:05:08;11.45;;;6.07;;
46110;SDS011;31849;55.992;37.252;2023-05-21T23:10:11;9.45;;;6.07;;
46110;SDS011;31849;55.992;37.252;2023-05-21T23:15:16;13.52;;;6.45;;
46110;SDS011;31849;55.992;37.252;2023-05-21T23:20:20;12.23;;;6.75;;
46110;SDS011;31849;55.992;37.252;2023-05-21T23:25:25;10.00;;;6.00;;
46110;SDS011;31849;55.992;37.252;2023-05-21T23:30:30;10.02;;;6.05;;
46110;SDS011;31849;55.992;37.252;2023-05-21T23:35:33;12.32;;;6.82;;
46110;SDS011;31849;55.992;37.252;2023-05-21T23:40:37;11.88;;;6.57;;
46110;SDS011;31849;55.992;37.252;2023-05-21T23:45:42;11.43;;;6.33;;
46110;SDS011;31849;55.992;37.252;2023-05-21T23:50:46;14.40;;;6.65;;
46110;SDS011;31849;55.992;37.252;2023-05-21T23:55:50;9.75;;;7.03;;
